RYR51AD LEPA-EDDK
Flight info
| Callsign | RYR51AD |
|---|---|
| Flight time | 1h 58m |
| Altitude | 34000 |
| Route | MEROS N853 LUMAS DCT MAXIR DCT LUSOL DCT BODRU DCT OKTET DCT IRMAR DCT KINES DCT VANAS DCT MOBLO DCT UBIMA DCT GILIR DCT PENDU DCT IXILU DCT EPL DCT JARNY DCT ROUSY/N0438F350 M624 DIK N853 ARCKY T853 IBESA/N0386F230 T860 ERUKI ERUKI1G |
| Aircraft | A320/M-SDE3FGHIRWY/LB1 |
Departure
| Time | 2026-05-04 02:40 |
|---|---|
| Airport | Palma de Mallorca Airport (LEPA) |
Arrival
| Time | 2026-05-04 04:38 |
|---|---|
| Airport | Cologne Bonn Airport (EDDK) |
| Time | Latitude | Longitude | Altitude | Speed | Heading |
|---|---|---|---|---|---|
| 2026-05-04 02:21 | 39.54718 | 2.73675 | 36 ft | 0 kts | 58° |
| 2026-05-04 02:34 | 39.54718 | 2.73674 | 36 ft | 1 kts | 59° |
| 2026-05-04 02:34 | 39.54710 | 2.73658 | 35 ft | 2 kts | 58° |
| 2026-05-04 02:34 | 39.54702 | 2.73641 | 35 ft | 2 kts | 58° |
| 2026-05-04 02:34 | 39.54694 | 2.73624 | 35 ft | 2 kts | 78° |
| 2026-05-04 02:35 | 39.54694 | 2.73604 | 35 ft | 2 kts | 103° |
| 2026-05-04 02:35 | 39.54700 | 2.73587 | 35 ft | 2 kts | 129° |
| 2026-05-04 02:35 | 39.54707 | 2.73578 | 35 ft | 0 kts | 146° |
| 2026-05-04 02:35 | 39.54713 | 2.73573 | 35 ft | 0 kts | 149° |
| 2026-05-04 02:37 | 39.54710 | 2.73576 | 35 ft | 1 kts | 148° |
| 2026-05-04 02:38 | 39.54699 | 2.73585 | 35 ft | 2 kts | 148° |
| 2026-05-04 02:38 | 39.54675 | 2.73604 | 36 ft | 4 kts | 148° |
| 2026-05-04 02:38 | 39.54640 | 2.73617 | 36 ft | 5 kts | 172° |
| 2026-05-04 02:38 | 39.54598 | 2.73637 | 36 ft | 7 kts | 153° |
| 2026-05-04 02:39 | 39.54549 | 2.73675 | 36 ft | 9 kts | 149° |
| 2026-05-04 02:39 | 39.54487 | 2.73724 | 35 ft | 11 kts | 149° |
| 2026-05-04 02:39 | 39.54424 | 2.73787 | 34 ft | 10 kts | 107° |
| 2026-05-04 02:39 | 39.54460 | 2.73882 | 34 ft | 20 kts | 58° |
| 2026-05-04 02:40 | 39.54662 | 2.74307 | 30 ft | 89 kts | 57° |
| 2026-05-04 02:40 | 39.55104 | 2.75242 | 16 ft | 149 kts | 58° |
| 2026-05-04 02:40 | 39.55697 | 2.76502 | 276 ft | 172 kts | 59° |
| 2026-05-04 02:40 | 39.56323 | 2.77845 | 857 ft | 176 kts | 59° |
| 2026-05-04 02:41 | 39.56940 | 2.79164 | 1561 ft | 174 kts | 60° |
| 2026-05-04 02:41 | 39.57579 | 2.80518 | 2111 ft | 182 kts | 59° |
| 2026-05-04 02:41 | 39.58260 | 2.81945 | 2573 ft | 196 kts | 59° |
| 2026-05-04 02:41 | 39.59000 | 2.83505 | 2991 ft | 213 kts | 59° |
| 2026-05-04 02:42 | 39.59817 | 2.85224 | 3368 ft | 234 kts | 59° |
| 2026-05-04 02:42 | 39.60676 | 2.87022 | 4115 ft | 237 kts | 59° |
| 2026-05-04 02:42 | 39.61548 | 2.88842 | 4668 ft | 239 kts | 59° |
| 2026-05-04 02:42 | 39.62439 | 2.90663 | 5115 ft | 246 kts | 54° |
| 2026-05-04 02:43 | 39.63746 | 2.92152 | 5648 ft | 260 kts | 26° |
| 2026-05-04 02:43 | 39.65443 | 2.93141 | 6120 ft | 277 kts | 28° |
| 2026-05-04 02:43 | 39.66917 | 2.94802 | 6727 ft | 286 kts | 57° |
| 2026-05-04 02:43 | 39.67679 | 2.97156 | 7497 ft | 287 kts | 78° |
| 2026-05-04 02:44 | 39.68086 | 2.99690 | 8227 ft | 292 kts | 78° |
| 2026-05-04 02:44 | 39.68624 | 3.02245 | 8895 ft | 299 kts | 72° |
| 2026-05-04 02:44 | 39.69344 | 3.04783 | 9588 ft | 304 kts | 68° |
| 2026-05-04 02:44 | 39.70204 | 3.07331 | 10274 ft | 310 kts | 65° |
| 2026-05-04 02:45 | 39.71140 | 3.09870 | 10715 ft | 324 kts | 63° |
| 2026-05-04 02:45 | 39.72184 | 3.12582 | 11052 ft | 341 kts | 63° |
| 2026-05-04 02:45 | 39.73276 | 3.15375 | 11589 ft | 350 kts | 62° |
| 2026-05-04 02:45 | 39.74382 | 3.18198 | 12216 ft | 355 kts | 62° |
| 2026-05-04 02:46 | 39.75509 | 3.21076 | 12818 ft | 361 kts | 62° |
| 2026-05-04 02:46 | 39.76661 | 3.23979 | 13392 ft | 366 kts | 59° |
| 2026-05-04 02:46 | 39.77995 | 3.26769 | 13943 ft | 371 kts | 52° |
| 2026-05-04 02:46 | 39.79601 | 3.29438 | 14534 ft | 374 kts | 47° |
| 2026-05-04 02:47 | 39.81292 | 3.31984 | 15144 ft | 377 kts | 46° |
| 2026-05-04 02:47 | 39.83038 | 3.34566 | 15728 ft | 380 kts | 46° |
| 2026-05-04 02:47 | 39.84777 | 3.37138 | 16311 ft | 383 kts | 46° |
| 2026-05-04 02:47 | 39.86544 | 3.39770 | 16888 ft | 386 kts | 46° |
| 2026-05-04 02:48 | 39.88296 | 3.42392 | 17441 ft | 389 kts | 46° |
| 2026-05-04 02:48 | 39.90070 | 3.45053 | 17976 ft | 393 kts | 47° |
| 2026-05-04 02:48 | 39.91859 | 3.47744 | 18504 ft | 396 kts | 47° |
| 2026-05-04 02:48 | 39.93660 | 3.50458 | 19019 ft | 398 kts | 47° |
| 2026-05-04 02:49 | 39.95472 | 3.53193 | 19530 ft | 401 kts | 47° |
| 2026-05-04 02:49 | 39.97317 | 3.55977 | 20051 ft | 403 kts | 47° |
| 2026-05-04 02:49 | 39.99137 | 3.58729 | 20546 ft | 406 kts | 47° |
| 2026-05-04 02:49 | 40.00976 | 3.61512 | 21023 ft | 409 kts | 47° |
| 2026-05-04 02:50 | 40.02826 | 3.64314 | 21499 ft | 411 kts | 47° |
| 2026-05-04 02:50 | 40.04702 | 3.67157 | 21974 ft | 413 kts | 48° |
| 2026-05-04 02:50 | 40.06568 | 3.69989 | 22431 ft | 416 kts | 48° |
| 2026-05-04 02:50 | 40.08460 | 3.72863 | 22874 ft | 418 kts | 48° |
| 2026-05-04 02:51 | 40.10366 | 3.75761 | 23288 ft | 421 kts | 48° |
| 2026-05-04 02:51 | 40.12257 | 3.78641 | 23692 ft | 424 kts | 48° |
| 2026-05-04 02:51 | 40.14179 | 3.81569 | 24077 ft | 427 kts | 48° |
| 2026-05-04 02:51 | 40.16107 | 3.84509 | 24454 ft | 430 kts | 48° |
| 2026-05-04 02:52 | 40.18063 | 3.87495 | 24833 ft | 433 kts | 47° |
| 2026-05-04 02:52 | 40.20011 | 3.90470 | 25204 ft | 436 kts | 47° |
| 2026-05-04 02:52 | 40.22000 | 3.93511 | 25578 ft | 438 kts | 47° |
| 2026-05-04 02:52 | 40.23981 | 3.96541 | 25928 ft | 441 kts | 47° |
| 2026-05-04 02:53 | 40.25982 | 3.99605 | 26290 ft | 444 kts | 47° |
| 2026-05-04 02:53 | 40.27964 | 4.02643 | 26619 ft | 446 kts | 47° |
| 2026-05-04 02:53 | 40.29990 | 4.05754 | 26943 ft | 449 kts | 47° |
| 2026-05-04 02:53 | 40.32016 | 4.08868 | 27256 ft | 452 kts | 47° |
| 2026-05-04 02:54 | 40.34055 | 4.12003 | 27570 ft | 455 kts | 47° |
| 2026-05-04 02:54 | 40.36105 | 4.15162 | 27897 ft | 457 kts | 47° |
| 2026-05-04 02:54 | 40.38176 | 4.18353 | 28228 ft | 459 kts | 47° |
| 2026-05-04 02:54 | 40.40214 | 4.21497 | 28534 ft | 461 kts | 47° |
| 2026-05-04 02:55 | 40.44389 | 4.27952 | 29133 ft | 465 kts | 47° |
| 2026-05-04 02:55 | 40.46484 | 4.31182 | 29394 ft | 467 kts | 45° |
| 2026-05-04 02:55 | 40.48819 | 4.34055 | 29650 ft | 464 kts | 33° |
| 2026-05-04 02:56 | 40.51537 | 4.36292 | 29932 ft | 459 kts | 21° |
| 2026-05-04 02:56 | 40.54486 | 4.37787 | 30200 ft | 454 kts | 9° |
| 2026-05-04 02:56 | 40.57588 | 4.38655 | 30450 ft | 451 kts | 4° |
| 2026-05-04 02:56 | 40.60690 | 4.39354 | 30723 ft | 452 kts | 4° |
| 2026-05-04 02:57 | 40.63758 | 4.40028 | 30958 ft | 454 kts | 4° |
| 2026-05-04 02:57 | 40.66877 | 4.40730 | 31181 ft | 457 kts | 4° |
| 2026-05-04 02:57 | 40.70019 | 4.41460 | 31402 ft | 458 kts | 4° |
| 2026-05-04 02:57 | 40.73159 | 4.42203 | 31655 ft | 459 kts | 5° |
| 2026-05-04 02:58 | 40.76284 | 4.42948 | 31903 ft | 460 kts | 5° |
| 2026-05-04 02:58 | 40.79437 | 4.43705 | 32135 ft | 461 kts | 5° |
| 2026-05-04 02:58 | 40.82608 | 4.44468 | 32349 ft | 462 kts | 5° |
| 2026-05-04 02:58 | 40.85755 | 4.45227 | 32546 ft | 464 kts | 5° |
| 2026-05-04 02:59 | 40.88941 | 4.45995 | 32749 ft | 464 kts | 5° |
| 2026-05-04 02:59 | 40.92102 | 4.46758 | 32931 ft | 465 kts | 5° |
| 2026-05-04 02:59 | 40.95306 | 4.47535 | 33114 ft | 466 kts | 4° |
| 2026-05-04 02:59 | 40.98484 | 4.48305 | 33295 ft | 467 kts | 5° |
| 2026-05-04 03:00 | 41.01699 | 4.49086 | 33479 ft | 467 kts | 5° |
| 2026-05-04 03:00 | 41.04872 | 4.49859 | 33713 ft | 466 kts | 4° |
| 2026-05-04 03:00 | 41.08075 | 4.50640 | 33971 ft | 464 kts | 5° |
| 2026-05-04 03:00 | 41.11234 | 4.51410 | 34181 ft | 464 kts | 4° |
| 2026-05-04 03:01 | 41.14403 | 4.52181 | 34365 ft | 463 kts | 4° |
| 2026-05-04 03:01 | 41.17569 | 4.52953 | 34545 ft | 463 kts | 4° |
| 2026-05-04 03:01 | 41.20755 | 4.53728 | 34705 ft | 463 kts | 4° |
| 2026-05-04 03:01 | 41.23901 | 4.54495 | 34865 ft | 463 kts | 4° |
| 2026-05-04 03:02 | 41.27051 | 4.55264 | 35031 ft | 463 kts | 4° |
| 2026-05-04 03:02 | 41.30253 | 4.56047 | 35182 ft | 463 kts | 5° |
| 2026-05-04 03:02 | 41.33387 | 4.56815 | 35337 ft | 463 kts | 5° |
| 2026-05-04 03:02 | 41.36550 | 4.57590 | 35471 ft | 463 kts | 5° |
| 2026-05-04 03:03 | 41.39752 | 4.58379 | 35596 ft | 464 kts | 4° |
| 2026-05-04 03:03 | 41.42886 | 4.59149 | 35728 ft | 464 kts | 4° |
| 2026-05-04 03:03 | 41.46077 | 4.59934 | 35872 ft | 464 kts | 4° |
| 2026-05-04 03:03 | 41.49256 | 4.60715 | 35999 ft | 464 kts | 4° |
| 2026-05-04 03:04 | 41.52414 | 4.61494 | 36138 ft | 463 kts | 4° |
| 2026-05-04 03:04 | 41.55590 | 4.62277 | 36281 ft | 463 kts | 4° |
| 2026-05-04 03:04 | 41.58741 | 4.63055 | 36436 ft | 463 kts | 4° |
| 2026-05-04 03:04 | 41.61892 | 4.63833 | 36593 ft | 463 kts | 4° |
| 2026-05-04 03:05 | 41.65069 | 4.64669 | 36764 ft | 464 kts | 7° |
| 2026-05-04 03:05 | 41.68178 | 4.65699 | 36881 ft | 467 kts | 11° |
| 2026-05-04 03:05 | 41.71319 | 4.66995 | 36999 ft | 469 kts | 14° |
| 2026-05-04 03:06 | 41.77393 | 4.70287 | 37015 ft | 473 kts | 21° |
| 2026-05-04 03:06 | 41.83162 | 4.74476 | 37016 ft | 477 kts | 27° |
| 2026-05-04 03:07 | 41.88831 | 4.79065 | 37013 ft | 476 kts | 27° |
| 2026-05-04 03:07 | 41.94494 | 4.83667 | 37007 ft | 475 kts | 27° |
| 2026-05-04 03:08 | 42.00122 | 4.88227 | 36997 ft | 474 kts | 27° |
| 2026-05-04 03:08 | 42.05757 | 4.92793 | 37009 ft | 475 kts | 27° |
| 2026-05-04 03:09 | 42.11384 | 4.97360 | 37011 ft | 474 kts | 27° |
| 2026-05-04 03:09 | 42.17028 | 5.01951 | 37020 ft | 473 kts | 27° |
| 2026-05-04 03:10 | 42.22631 | 5.06517 | 37020 ft | 473 kts | 27° |
| 2026-05-04 03:10 | 42.28255 | 5.11109 | 37024 ft | 473 kts | 27° |
| 2026-05-04 03:11 | 42.33895 | 5.15722 | 37026 ft | 473 kts | 28° |
| 2026-05-04 03:11 | 42.39503 | 5.20318 | 37030 ft | 474 kts | 28° |
| 2026-05-04 03:12 | 42.45141 | 5.24953 | 37030 ft | 473 kts | 28° |
| 2026-05-04 03:12 | 42.50773 | 5.29592 | 37035 ft | 473 kts | 28° |
| 2026-05-04 03:13 | 42.56387 | 5.34228 | 37037 ft | 472 kts | 28° |
| 2026-05-04 03:13 | 42.61951 | 5.38829 | 37043 ft | 471 kts | 28° |
| 2026-05-04 03:14 | 42.67559 | 5.43478 | 37032 ft | 471 kts | 28° |
| 2026-05-04 03:14 | 42.73109 | 5.48087 | 37052 ft | 471 kts | 29° |
| 2026-05-04 03:15 | 42.78714 | 5.52749 | 37046 ft | 471 kts | 29° |
| 2026-05-04 03:15 | 42.84287 | 5.57401 | 37049 ft | 471 kts | 29° |
| 2026-05-04 03:16 | 42.89856 | 5.62056 | 37054 ft | 471 kts | 29° |
| 2026-05-04 03:16 | 42.95444 | 5.66739 | 37048 ft | 470 kts | 30° |
| 2026-05-04 03:17 | 43.01000 | 5.71402 | 37055 ft | 470 kts | 30° |
| 2026-05-04 03:17 | 43.06540 | 5.76064 | 37059 ft | 470 kts | 30° |
| 2026-05-04 03:18 | 43.12091 | 5.80746 | 37063 ft | 470 kts | 30° |
| 2026-05-04 03:18 | 43.17649 | 5.85444 | 37066 ft | 470 kts | 30° |
| 2026-05-04 03:19 | 43.23217 | 5.90162 | 37072 ft | 470 kts | 30° |
| 2026-05-04 03:19 | 43.28786 | 5.94888 | 37075 ft | 473 kts | 30° |
| 2026-05-04 03:20 | 43.34432 | 5.99443 | 37078 ft | 472 kts | 25° |
| 2026-05-04 03:20 | 43.40521 | 6.02841 | 37075 ft | 470 kts | 14° |
| 2026-05-04 03:21 | 43.46837 | 6.04771 | 37081 ft | 466 kts | 5° |
| 2026-05-04 03:21 | 43.53315 | 6.05535 | 37083 ft | 464 kts | 1° |
| 2026-05-04 03:22 | 43.59753 | 6.06114 | 37087 ft | 465 kts | 1° |
| 2026-05-04 03:22 | 43.66217 | 6.06744 | 37084 ft | 465 kts | 1° |
| 2026-05-04 03:23 | 43.72644 | 6.07766 | 37087 ft | 468 kts | 7° |
| 2026-05-04 03:23 | 43.78978 | 6.09911 | 37082 ft | 471 kts | 15° |
| 2026-05-04 03:24 | 43.85101 | 6.13210 | 37093 ft | 473 kts | 23° |
| 2026-05-04 03:24 | 43.90990 | 6.17206 | 37094 ft | 473 kts | 25° |
| 2026-05-04 03:25 | 43.96853 | 6.21258 | 37096 ft | 473 kts | 25° |
| 2026-05-04 03:25 | 44.02772 | 6.25327 | 37095 ft | 472 kts | 25° |
| 2026-05-04 03:26 | 44.08628 | 6.29346 | 37092 ft | 472 kts | 24° |
| 2026-05-04 03:26 | 44.14497 | 6.33383 | 37096 ft | 473 kts | 25° |
| 2026-05-04 03:27 | 44.20399 | 6.37456 | 37101 ft | 473 kts | 24° |
| 2026-05-04 03:27 | 44.26271 | 6.41511 | 37103 ft | 473 kts | 24° |
| 2026-05-04 03:28 | 44.32160 | 6.45586 | 37104 ft | 473 kts | 24° |
| 2026-05-04 03:28 | 44.38067 | 6.49684 | 37102 ft | 473 kts | 24° |
| 2026-05-04 03:29 | 44.43943 | 6.53770 | 37097 ft | 473 kts | 24° |
| 2026-05-04 03:29 | 44.49800 | 6.57855 | 37096 ft | 472 kts | 24° |
| 2026-05-04 03:30 | 44.55698 | 6.61973 | 37099 ft | 472 kts | 24° |
| 2026-05-04 03:30 | 44.61562 | 6.66075 | 37093 ft | 473 kts | 25° |
| 2026-05-04 03:31 | 44.67441 | 6.70201 | 37107 ft | 473 kts | 25° |
| 2026-05-04 03:31 | 44.73349 | 6.74244 | 37121 ft | 472 kts | 21° |
| 2026-05-04 03:32 | 44.79519 | 6.77126 | 37123 ft | 470 kts | 11° |
| 2026-05-04 03:32 | 44.85975 | 6.78462 | 37109 ft | 466 kts | 0° |
| 2026-05-04 03:33 | 44.92396 | 6.78354 | 37096 ft | 463 kts | 354° |
| 2026-05-04 03:33 | 44.98814 | 6.77874 | 37095 ft | 463 kts | 354° |
| 2026-05-04 03:34 | 45.05250 | 6.77415 | 37088 ft | 464 kts | 354° |
| 2026-05-04 03:34 | 45.11683 | 6.76977 | 37093 ft | 464 kts | 354° |
| 2026-05-04 03:35 | 45.18152 | 6.76544 | 37086 ft | 464 kts | 354° |
| 2026-05-04 03:35 | 45.24578 | 6.76113 | 37251 ft | 464 kts | 354° |
| 2026-05-04 03:35 | 45.27817 | 6.75896 | 37411 ft | 463 kts | 354° |
| 2026-05-04 03:36 | 45.31027 | 6.75680 | 37531 ft | 463 kts | 354° |
| 2026-05-04 03:36 | 45.34215 | 6.75466 | 37645 ft | 462 kts | 354° |
| 2026-05-04 03:36 | 45.37463 | 6.75249 | 37768 ft | 462 kts | 354° |
| 2026-05-04 03:36 | 45.40641 | 6.75037 | 37873 ft | 462 kts | 354° |
| 2026-05-04 03:37 | 45.43877 | 6.74819 | 37970 ft | 462 kts | 354° |
| 2026-05-04 03:37 | 45.50278 | 6.74388 | 38152 ft | 461 kts | 354° |
| 2026-05-04 03:38 | 45.56657 | 6.73953 | 38286 ft | 462 kts | 354° |
| 2026-05-04 03:38 | 45.63067 | 6.73512 | 38444 ft | 462 kts | 354° |
| 2026-05-04 03:38 | 45.66294 | 6.73290 | 38548 ft | 461 kts | 354° |
| 2026-05-04 03:39 | 45.69488 | 6.73070 | 38634 ft | 460 kts | 354° |
| 2026-05-04 03:39 | 45.75879 | 6.72629 | 38804 ft | 459 kts | 354° |
| 2026-05-04 03:40 | 45.82231 | 6.72190 | 38924 ft | 459 kts | 354° |
| 2026-05-04 03:40 | 45.88635 | 6.71758 | 39017 ft | 459 kts | 354° |
| 2026-05-04 03:41 | 45.94974 | 6.71328 | 39075 ft | 459 kts | 354° |
| 2026-05-04 03:41 | 46.01348 | 6.70892 | 39077 ft | 460 kts | 354° |
| 2026-05-04 03:42 | 46.07726 | 6.70375 | 39072 ft | 459 kts | 351° |
| 2026-05-04 03:42 | 46.14041 | 6.68990 | 39078 ft | 456 kts | 344° |
| 2026-05-04 03:43 | 46.20134 | 6.66553 | 39084 ft | 453 kts | 338° |
| 2026-05-04 03:43 | 46.26094 | 6.63647 | 39083 ft | 452 kts | 338° |
| 2026-05-04 03:44 | 46.32038 | 6.60725 | 39072 ft | 452 kts | 338° |
| 2026-05-04 03:44 | 46.37957 | 6.57825 | 39058 ft | 452 kts | 338° |
| 2026-05-04 03:45 | 46.43920 | 6.54904 | 39053 ft | 453 kts | 338° |
| 2026-05-04 03:45 | 46.49911 | 6.51963 | 39034 ft | 453 kts | 338° |
| 2026-05-04 03:46 | 46.55846 | 6.49044 | 39039 ft | 453 kts | 338° |
| 2026-05-04 03:46 | 46.61807 | 6.46107 | 39048 ft | 454 kts | 338° |
| 2026-05-04 03:47 | 46.67806 | 6.43144 | 39044 ft | 453 kts | 338° |
| 2026-05-04 03:47 | 46.73737 | 6.40205 | 39042 ft | 454 kts | 338° |
| 2026-05-04 03:48 | 46.79708 | 6.37241 | 39040 ft | 454 kts | 338° |
| 2026-05-04 03:48 | 46.85666 | 6.34275 | 39033 ft | 454 kts | 337° |
| 2026-05-04 03:49 | 46.91645 | 6.31294 | 39038 ft | 453 kts | 337° |
| 2026-05-04 03:49 | 46.97590 | 6.28320 | 39031 ft | 454 kts | 337° |
| 2026-05-04 03:50 | 47.03569 | 6.25316 | 39028 ft | 454 kts | 336° |
| 2026-05-04 03:50 | 47.09377 | 6.21776 | 39028 ft | 451 kts | 330° |
| 2026-05-04 03:51 | 47.14955 | 6.17764 | 39026 ft | 451 kts | 329° |
| 2026-05-04 03:51 | 47.20593 | 6.13660 | 39025 ft | 451 kts | 330° |
| 2026-05-04 03:52 | 47.26208 | 6.09589 | 39024 ft | 451 kts | 330° |
| 2026-05-04 03:52 | 47.32063 | 6.06126 | 39024 ft | 456 kts | 339° |
| 2026-05-04 03:53 | 47.38228 | 6.04045 | 39025 ft | 460 kts | 349° |
| 2026-05-04 03:53 | 47.44658 | 6.03413 | 39029 ft | 465 kts | 357° |
| 2026-05-04 03:54 | 47.51093 | 6.03570 | 39023 ft | 466 kts | 358° |
| 2026-05-04 03:54 | 47.57573 | 6.03761 | 39024 ft | 466 kts | 358° |
| 2026-05-04 03:55 | 47.64009 | 6.03919 | 39025 ft | 466 kts | 358° |
| 2026-05-04 03:55 | 47.70492 | 6.04067 | 39023 ft | 466 kts | 358° |
| 2026-05-04 03:56 | 47.76982 | 6.04229 | 39027 ft | 466 kts | 358° |
| 2026-05-04 03:56 | 47.83455 | 6.04437 | 39024 ft | 466 kts | 358° |
| 2026-05-04 03:57 | 47.89923 | 6.04643 | 39027 ft | 467 kts | 358° |
| 2026-05-04 03:57 | 47.96434 | 6.04848 | 39024 ft | 468 kts | 358° |
| 2026-05-04 03:58 | 48.06200 | 6.05154 | 39020 ft | 469 kts | 358° |
| 2026-05-04 03:58 | 48.12708 | 6.05356 | 39019 ft | 469 kts | 358° |
| 2026-05-04 03:59 | 48.19223 | 6.05558 | 39018 ft | 468 kts | 358° |
| 2026-05-04 03:59 | 48.25774 | 6.05761 | 39023 ft | 468 kts | 358° |
| 2026-05-04 04:00 | 48.32315 | 6.05969 | 39016 ft | 469 kts | 358° |
| 2026-05-04 04:00 | 48.38842 | 6.06259 | 39020 ft | 470 kts | 359° |
| 2026-05-04 04:01 | 48.45393 | 6.06570 | 39019 ft | 471 kts | 359° |
| 2026-05-04 04:01 | 48.51942 | 6.06878 | 39015 ft | 471 kts | 359° |
| 2026-05-04 04:02 | 48.58483 | 6.07179 | 39019 ft | 471 kts | 359° |
| 2026-05-04 04:02 | 48.65026 | 6.07482 | 39022 ft | 471 kts | 359° |
| 2026-05-04 04:03 | 48.71538 | 6.07784 | 39010 ft | 471 kts | 359° |
| 2026-05-04 04:03 | 48.78074 | 6.08086 | 39014 ft | 471 kts | 359° |
| 2026-05-04 04:04 | 48.84594 | 6.08387 | 39015 ft | 470 kts | 359° |
| 2026-05-04 04:04 | 48.91132 | 6.08692 | 39012 ft | 471 kts | 359° |
| 2026-05-04 04:05 | 48.97702 | 6.08996 | 39015 ft | 472 kts | 359° |
| 2026-05-04 04:05 | 49.04225 | 6.09302 | 39004 ft | 473 kts | 359° |
| 2026-05-04 04:06 | 49.10814 | 6.09610 | 39006 ft | 473 kts | 359° |
| 2026-05-04 04:06 | 49.17348 | 6.09916 | 38996 ft | 473 kts | 359° |
| 2026-05-04 04:07 | 49.23939 | 6.10247 | 38995 ft | 473 kts | 359° |
| 2026-05-04 04:07 | 49.30505 | 6.10600 | 38990 ft | 473 kts | 359° |
| 2026-05-04 04:08 | 49.37080 | 6.10950 | 38993 ft | 474 kts | 359° |
| 2026-05-04 04:08 | 49.43654 | 6.11299 | 38994 ft | 473 kts | 359° |
| 2026-05-04 04:09 | 49.50222 | 6.11628 | 38992 ft | 473 kts | 358° |
| 2026-05-04 04:09 | 49.56791 | 6.11876 | 38992 ft | 473 kts | 358° |
| 2026-05-04 04:10 | 49.63353 | 6.12115 | 38991 ft | 474 kts | 358° |
| 2026-05-04 04:10 | 49.69926 | 6.12365 | 38989 ft | 475 kts | 358° |
| 2026-05-04 04:11 | 49.76539 | 6.12617 | 38518 ft | 473 kts | 358° |
| 2026-05-04 04:11 | 49.79803 | 6.12743 | 37594 ft | 476 kts | 358° |
| 2026-05-04 04:11 | 49.83104 | 6.12869 | 36583 ft | 480 kts | 358° |
| 2026-05-04 04:12 | 49.86438 | 6.12995 | 35830 ft | 482 kts | 358° |
| 2026-05-04 04:12 | 49.89807 | 6.13056 | 35114 ft | 483 kts | 356° |
| 2026-05-04 04:12 | 49.93132 | 6.13069 | 34392 ft | 483 kts | 356° |
| 2026-05-04 04:12 | 49.96499 | 6.13078 | 33620 ft | 483 kts | 356° |
| 2026-05-04 04:13 | 49.99853 | 6.13089 | 32821 ft | 484 kts | 356° |
| 2026-05-04 04:13 | 50.03218 | 6.13105 | 32024 ft | 483 kts | 355° |
| 2026-05-04 04:13 | 50.06545 | 6.13122 | 31424 ft | 478 kts | 355° |
| 2026-05-04 04:13 | 50.09822 | 6.13140 | 30883 ft | 473 kts | 355° |
| 2026-05-04 04:14 | 50.13093 | 6.13157 | 30338 ft | 466 kts | 355° |
| 2026-05-04 04:14 | 50.16288 | 6.13169 | 29814 ft | 460 kts | 355° |
| 2026-05-04 04:14 | 50.19474 | 6.13181 | 29327 ft | 454 kts | 354° |
| 2026-05-04 04:14 | 50.22630 | 6.13198 | 28811 ft | 448 kts | 355° |
| 2026-05-04 04:15 | 50.25726 | 6.13214 | 28330 ft | 442 kts | 356° |
| 2026-05-04 04:15 | 50.28770 | 6.13681 | 27841 ft | 443 kts | 8° |
| 2026-05-04 04:15 | 50.31699 | 6.15170 | 27367 ft | 444 kts | 22° |
| 2026-05-04 04:15 | 50.34369 | 6.17533 | 26919 ft | 440 kts | 31° |
| 2026-05-04 04:16 | 50.36899 | 6.20177 | 26466 ft | 435 kts | 32° |
| 2026-05-04 04:16 | 50.39360 | 6.22816 | 25986 ft | 432 kts | 32° |
| 2026-05-04 04:16 | 50.41845 | 6.25443 | 25532 ft | 427 kts | 32° |
| 2026-05-04 04:16 | 50.44321 | 6.28021 | 25066 ft | 423 kts | 32° |
| 2026-05-04 04:17 | 50.46742 | 6.30537 | 24610 ft | 420 kts | 34° |
| 2026-05-04 04:17 | 50.48917 | 6.33533 | 24140 ft | 416 kts | 49° |
| 2026-05-04 04:17 | 50.50574 | 6.37237 | 23685 ft | 410 kts | 64° |
| 2026-05-04 04:17 | 50.51750 | 6.41280 | 23251 ft | 405 kts | 70° |
| 2026-05-04 04:18 | 50.52802 | 6.45362 | 22817 ft | 402 kts | 70° |
| 2026-05-04 04:18 | 50.53845 | 6.49380 | 22399 ft | 399 kts | 69° |
| 2026-05-04 04:18 | 50.54909 | 6.53381 | 21987 ft | 396 kts | 69° |
| 2026-05-04 04:18 | 50.55975 | 6.57334 | 21579 ft | 393 kts | 68° |
| 2026-05-04 04:19 | 50.57037 | 6.61252 | 21177 ft | 390 kts | 68° |
| 2026-05-04 04:19 | 50.58098 | 6.65163 | 20769 ft | 387 kts | 69° |
| 2026-05-04 04:19 | 50.59147 | 6.69038 | 20350 ft | 385 kts | 69° |
| 2026-05-04 04:19 | 50.60269 | 6.72867 | 19915 ft | 384 kts | 62° |
| 2026-05-04 04:20 | 50.61791 | 6.76273 | 19494 ft | 382 kts | 49° |
| 2026-05-04 04:20 | 50.63699 | 6.79139 | 19074 ft | 379 kts | 39° |
| 2026-05-04 04:20 | 50.65730 | 6.81709 | 18661 ft | 377 kts | 37° |
| 2026-05-04 04:20 | 50.67777 | 6.84237 | 18237 ft | 375 kts | 37° |
| 2026-05-04 04:21 | 50.69805 | 6.86775 | 17819 ft | 373 kts | 38° |
| 2026-05-04 04:21 | 50.71830 | 6.89353 | 17387 ft | 372 kts | 39° |
| 2026-05-04 04:21 | 50.73735 | 6.92036 | 16958 ft | 371 kts | 44° |
| 2026-05-04 04:21 | 50.75531 | 6.94946 | 16562 ft | 368 kts | 47° |
| 2026-05-04 04:22 | 50.77266 | 6.97857 | 16296 ft | 360 kts | 43° |
| 2026-05-04 04:22 | 50.79331 | 6.99923 | 16069 ft | 347 kts | 15° |
| 2026-05-04 04:22 | 50.81657 | 7.00255 | 15948 ft | 326 kts | 346° |
| 2026-05-04 04:22 | 50.83635 | 6.98909 | 15832 ft | 302 kts | 316° |
| 2026-05-04 04:23 | 50.85067 | 6.96621 | 15751 ft | 286 kts | 307° |
| 2026-05-04 04:23 | 50.86388 | 6.94319 | 15645 ft | 276 kts | 308° |
| 2026-05-04 04:23 | 50.87696 | 6.92179 | 15448 ft | 272 kts | 310° |
| 2026-05-04 04:23 | 50.89062 | 6.90066 | 15114 ft | 272 kts | 311° |
| 2026-05-04 04:24 | 50.90428 | 6.88026 | 14789 ft | 272 kts | 312° |
| 2026-05-04 04:24 | 50.91814 | 6.85984 | 14469 ft | 272 kts | 312° |
| 2026-05-04 04:24 | 50.93206 | 6.83948 | 14151 ft | 271 kts | 312° |
| 2026-05-04 04:24 | 50.94573 | 6.81948 | 13832 ft | 270 kts | 312° |
| 2026-05-04 04:25 | 50.95954 | 6.79925 | 13514 ft | 269 kts | 312° |
| 2026-05-04 04:25 | 50.97327 | 6.77911 | 13195 ft | 268 kts | 312° |
| 2026-05-04 04:25 | 50.98684 | 6.75919 | 12881 ft | 267 kts | 312° |
| 2026-05-04 04:25 | 51.00046 | 6.73917 | 12568 ft | 265 kts | 312° |
| 2026-05-04 04:26 | 51.01384 | 6.71951 | 12259 ft | 264 kts | 312° |
| 2026-05-04 04:26 | 51.02730 | 6.69970 | 11949 ft | 262 kts | 312° |
| 2026-05-04 04:26 | 51.04051 | 6.68024 | 11636 ft | 261 kts | 312° |
| 2026-05-04 04:26 | 51.05369 | 6.66083 | 11331 ft | 259 kts | 313° |
| 2026-05-04 04:27 | 51.06685 | 6.64143 | 11022 ft | 257 kts | 312° |
| 2026-05-04 04:27 | 51.07989 | 6.62219 | 10716 ft | 256 kts | 313° |
| 2026-05-04 04:27 | 51.09283 | 6.60306 | 10408 ft | 254 kts | 313° |
| 2026-05-04 04:27 | 51.10572 | 6.58403 | 10102 ft | 252 kts | 312° |
| 2026-05-04 04:28 | 51.11858 | 6.56500 | 9802 ft | 251 kts | 313° |
| 2026-05-04 04:28 | 51.13126 | 6.54622 | 9500 ft | 249 kts | 313° |
| 2026-05-04 04:28 | 51.14440 | 6.52846 | 9183 ft | 252 kts | 326° |
| 2026-05-04 04:28 | 51.16130 | 6.52156 | 8850 ft | 261 kts | 1° |
| 2026-05-04 04:29 | 51.17852 | 6.53038 | 8537 ft | 265 kts | 34° |
| 2026-05-04 04:29 | 51.19176 | 6.55086 | 8254 ft | 263 kts | 48° |
| 2026-05-04 04:29 | 51.20376 | 6.57257 | 7965 ft | 262 kts | 48° |
| 2026-05-04 04:29 | 51.21484 | 6.59532 | 7641 ft | 261 kts | 65° |
| 2026-05-04 04:30 | 51.21776 | 6.62286 | 7320 ft | 256 kts | 103° |
| 2026-05-04 04:30 | 51.21057 | 6.64827 | 7009 ft | 247 kts | 135° |
| 2026-05-04 04:30 | 51.19821 | 6.66640 | 6743 ft | 243 kts | 143° |
| 2026-05-04 04:30 | 51.18548 | 6.68388 | 6460 ft | 242 kts | 142° |
| 2026-05-04 04:31 | 51.17287 | 6.70170 | 6176 ft | 241 kts | 141° |
| 2026-05-04 04:31 | 51.16048 | 6.71959 | 5899 ft | 240 kts | 141° |
| 2026-05-04 04:31 | 51.14834 | 6.73730 | 5625 ft | 239 kts | 140° |
| 2026-05-04 04:31 | 51.13609 | 6.75529 | 5345 ft | 238 kts | 140° |
| 2026-05-04 04:32 | 51.12409 | 6.77295 | 5066 ft | 237 kts | 140° |
| 2026-05-04 04:32 | 51.11203 | 6.79067 | 4787 ft | 236 kts | 139° |
| 2026-05-04 04:32 | 51.10006 | 6.80828 | 4510 ft | 235 kts | 139° |
| 2026-05-04 04:32 | 51.08811 | 6.82584 | 4235 ft | 234 kts | 139° |
| 2026-05-04 04:33 | 51.07623 | 6.84330 | 3963 ft | 233 kts | 139° |
| 2026-05-04 04:33 | 51.06424 | 6.86088 | 3687 ft | 232 kts | 139° |
| 2026-05-04 04:33 | 51.05255 | 6.87819 | 3416 ft | 231 kts | 137° |
| 2026-05-04 04:33 | 51.04107 | 6.89600 | 3143 ft | 230 kts | 137° |
| 2026-05-04 04:34 | 51.02959 | 6.91352 | 3006 ft | 230 kts | 138° |
| 2026-05-04 04:34 | 51.01780 | 6.93098 | 2999 ft | 229 kts | 138° |
| 2026-05-04 04:34 | 51.00626 | 6.94773 | 2995 ft | 222 kts | 139° |
| 2026-05-04 04:34 | 50.99513 | 6.96375 | 2984 ft | 210 kts | 139° |
| 2026-05-04 04:35 | 50.98459 | 6.97889 | 2941 ft | 204 kts | 139° |
| 2026-05-04 04:35 | 50.97402 | 6.99406 | 2719 ft | 203 kts | 139° |
| 2026-05-04 04:35 | 50.96389 | 7.00864 | 2531 ft | 195 kts | 139° |
| 2026-05-04 04:35 | 50.95387 | 7.02307 | 2235 ft | 192 kts | 138° |
| 2026-05-04 04:36 | 50.94401 | 7.03729 | 1953 ft | 189 kts | 138° |
| 2026-05-04 04:36 | 50.93460 | 7.05087 | 1706 ft | 176 kts | 138° |
| 2026-05-04 04:36 | 50.92598 | 7.06332 | 1465 ft | 162 kts | 137° |
| 2026-05-04 04:36 | 50.91804 | 7.07480 | 1238 ft | 148 kts | 137° |
| 2026-05-04 04:37 | 50.89701 | 7.10502 | 731 ft | 133 kts | 139° |
| 2026-05-04 04:37 | 50.89014 | 7.11489 | 539 ft | 133 kts | 136° |
| 2026-05-04 04:38 | 50.88337 | 7.12485 | 351 ft | 132 kts | 136° |
| 2026-05-04 04:38 | 50.87671 | 7.13453 | 245 ft | 124 kts | 136° |
| 2026-05-04 04:38 | 50.87136 | 7.14229 | 255 ft | 79 kts | 137° |
| 2026-05-04 04:38 | 50.86842 | 7.14654 | 264 ft | 48 kts | 137° |
| 2026-05-04 04:39 | 50.86612 | 7.14990 | 274 ft | 41 kts | 138° |
| 2026-05-04 04:39 | 50.86397 | 7.15251 | 279 ft | 36 kts | 154° |
| 2026-05-04 04:39 | 50.86178 | 7.15349 | 284 ft | 22 kts | 168° |
| 2026-05-04 04:39 | 50.86050 | 7.15253 | 282 ft | 22 kts | 250° |
| 2026-05-04 04:40 | 50.86109 | 7.15040 | 280 ft | 22 kts | 317° |
| 2026-05-04 04:40 | 50.86224 | 7.14876 | 279 ft | 22 kts | 317° |
| 2026-05-04 04:40 | 50.86346 | 7.14699 | 274 ft | 24 kts | 317° |
| 2026-05-04 04:40 | 50.86477 | 7.14508 | 268 ft | 26 kts | 317° |
| 2026-05-04 04:41 | 50.86615 | 7.14307 | 261 ft | 27 kts | 317° |
| 2026-05-04 04:41 | 50.86733 | 7.14144 | 257 ft | 15 kts | 334° |
| 2026-05-04 04:41 | 50.86825 | 7.14065 | 255 ft | 16 kts | 317° |
| 2026-05-04 04:41 | 50.86916 | 7.13933 | 252 ft | 18 kts | 317° |
| 2026-05-04 04:42 | 50.87016 | 7.13789 | 250 ft | 20 kts | 317° |
| 2026-05-04 04:42 | 50.87125 | 7.13631 | 247 ft | 21 kts | 317° |
| 2026-05-04 04:42 | 50.87241 | 7.13462 | 244 ft | 22 kts | 317° |
| 2026-05-04 04:42 | 50.87357 | 7.13295 | 244 ft | 22 kts | 317° |
| 2026-05-04 04:43 | 50.87472 | 7.13127 | 244 ft | 22 kts | 317° |
| 2026-05-04 04:43 | 50.87585 | 7.12965 | 246 ft | 21 kts | 317° |
| 2026-05-04 04:43 | 50.87690 | 7.12812 | 247 ft | 20 kts | 317° |
| 2026-05-04 04:43 | 50.87771 | 7.12677 | 247 ft | 12 kts | 287° |
| 2026-05-04 04:44 | 50.87756 | 7.12576 | 246 ft | 9 kts | 241° |
| 2026-05-04 04:44 | 50.87752 | 7.12468 | 241 ft | 9 kts | 289° |
| 2026-05-04 04:44 | 50.87765 | 7.12413 | 239 ft | 0 kts | 289° |